sensor_id;sensor_type;location;lat;lon;timestamp;pressure;altitude;pressure_sealevel;temperature;humidity
36664;BME280;53333;51.976;20.144;2022-09-09T00:01:23;99839.16;;;14.64;65.24
36664;BME280;53333;51.976;20.144;2022-09-09T00:04:13;99849.69;;;14.67;65.32
36664;BME280;53333;51.976;20.144;2022-09-09T00:06:59;99851.44;;;14.68;65.41
36664;BME280;53333;51.976;20.144;2022-09-09T00:09:36;99844.53;;;14.77;64.12
36664;BME280;53333;51.976;20.144;2022-09-09T00:12:19;99843.38;;;14.68;64.83
36664;BME280;53333;51.976;20.144;2022-09-09T00:15:07;99841.63;;;14.67;65.18
36664;BME280;53333;51.976;20.144;2022-09-09T00:17:47;99841.63;;;14.67;65.64
36664;BME280;53333;51.976;20.144;2022-09-09T00:20:29;99848.63;;;14.69;65.16
36664;BME280;53333;51.976;20.144;2022-09-09T00:23:14;99837.09;;;14.67;65.34
36664;BME280;53333;51.976;20.144;2022-09-09T00:25:59;99834.41;;;14.67;65.53
36664;BME280;53333;51.976;20.144;2022-09-09T00:28:48;99830.88;;;14.67;65.33
36664;BME280;53333;51.976;20.144;2022-09-09T00:31:31;99839.16;;;14.64;65.58
36664;BME280;53333;51.976;20.144;2022-09-09T00:34:11;99832.94;;;14.63;65.52
36664;BME280;53333;51.976;20.144;2022-09-09T00:36:49;99833.88;;;14.62;65.45
36664;BME280;53333;51.976;20.144;2022-09-09T00:39:30;99830.34;;;14.62;65.47
36664;BME280;53333;51.976;20.144;2022-09-09T00:42:16;99836.69;;;14.61;65.19
36664;BME280;53333;51.976;20.144;2022-09-09T00:44:59;99837.72;;;14.58;65.47
36664;BME280;53333;51.976;20.144;2022-09-09T00:47:46;99846.78;;;14.57;65.52
36664;BME280;53333;51.976;20.144;2022-09-09T00:50:41;99841.41;;;14.57;65.68
36664;BME280;53333;51.976;20.144;2022-09-09T00:53:24;99843.09;;;14.58;65.77
36664;BME280;53333;51.976;20.144;2022-09-09T00:56:14;99843.97;;;14.59;65.71
36664;BME280;53333;51.976;20.144;2022-09-09T00:58:58;99836.88;;;14.58;65.82
36664;BME280;53333;51.976;20.144;2022-09-09T01:01:38;99840.50;;;14.57;65.65
36664;BME280;53333;51.976;20.144;2022-09-09T01:04:18;99832.59;;;14.55;65.79
36664;BME280;53333;51.976;20.144;2022-09-09T01:07:01;99840.41;;;14.58;65.85
36664;BME280;53333;51.976;20.144;2022-09-09T01:09:50;99846.78;;;14.57;65.78
36664;BME280;53333;51.976;20.144;2022-09-09T01:12:38;99847.72;;;14.56;65.82
36664;BME280;53333;51.976;20.144;2022-09-09T01:15:20;99844.28;;;14.54;65.86
36664;BME280;53333;51.976;20.144;2022-09-09T01:18:00;99851.41;;;14.55;66.18
36664;BME280;53333;51.976;20.144;2022-09-09T01:20:45;99849.47;;;14.57;65.95
36664;BME280;53333;51.976;20.144;2022-09-09T01:23:41;99846.59;;;14.60;65.92
36664;BME280;53333;51.976;20.144;2022-09-09T01:26:45;99851.09;;;14.60;65.85
36664;BME280;53333;51.976;20.144;2022-09-09T01:29:28;99851.97;;;14.60;66.06
36664;BME280;53333;51.976;20.144;2022-09-09T01:32:40;99852.81;;;14.61;65.83
36664;BME280;53333;51.976;20.144;2022-09-09T01:35:29;99856.78;;;14.55;66.18
36664;BME280;53333;51.976;20.144;2022-09-09T01:38:10;99848.03;;;14.51;66.30
36664;BME280;53333;51.976;20.144;2022-09-09T01:40:44;99848.94;;;14.52;66.39
36664;BME280;53333;51.976;20.144;2022-09-09T01:43:21;99848.03;;;14.51;66.56
36664;BME280;53333;51.976;20.144;2022-09-09T01:46:00;99844.41;;;14.52;66.76
36664;BME280;53333;51.976;20.144;2022-09-09T01:48:35;99838.91;;;14.54;66.61
36664;BME280;53333;51.976;20.144;2022-09-09T01:51:14;99847.94;;;14.53;66.65
36664;BME280;53333;51.976;20.144;2022-09-09T01:53:51;99851.63;;;14.52;66.69
36664;BME280;53333;51.976;20.144;2022-09-09T01:56:40;99842.47;;;14.54;66.83
36664;BME280;53333;51.976;20.144;2022-09-09T01:59:41;99840.50;;;14.57;66.77
36664;BME280;53333;51.976;20.144;2022-09-09T02:02:26;99838.81;;;14.56;66.88
36664;BME280;53333;51.976;20.144;2022-09-09T02:05:30;99839.56;;;14.58;66.86
36664;BME280;53333;51.976;20.144;2022-09-09T02:08:29;99841.59;;;14.54;66.81
36664;BME280;53333;51.976;20.144;2022-09-09T02:11:15;99828.16;;;14.54;67.06
36664;BME280;53333;51.976;20.144;2022-09-09T02:14:17;99836.03;;;14.57;66.78
36664;BME280;53333;51.976;20.144;2022-09-09T02:17:07;99844.81;;;14.59;66.76
36664;BME280;53333;51.976;20.144;2022-09-09T02:20:10;99846.88;;;14.56;67.01
36664;BME280;53333;51.976;20.144;2022-09-09T02:23:01;99844.19;;;14.56;66.94
36664;BME280;53333;51.976;20.144;2022-09-09T02:25:36;99846.03;;;14.55;67.04
36664;BME280;53333;51.976;20.144;2022-09-09T02:28:27;99842.25;;;14.58;67.07
36664;BME280;53333;51.976;20.144;2022-09-09T02:31:11;99847.63;;;14.58;67.08
36664;BME280;53333;51.976;20.144;2022-09-09T02:34:07;99852.81;;;14.61;67.00
36664;BME280;53333;51.976;20.144;2022-09-09T02:36:47;99853.75;;;14.60;67.12
36664;BME280;53333;51.976;20.144;2022-09-09T02:39:26;99849.47;;;14.57;67.15
36664;BME280;53333;51.976;20.144;2022-09-09T02:42:03;99853.00;;;14.58;67.25
36664;BME280;53333;51.976;20.144;2022-09-09T02:44:40;99854.84;;;14.57;67.36
36664;BME280;53333;51.976;20.144;2022-09-09T02:47:28;99856.63;;;14.57;67.21
36664;BME280;53333;51.976;20.144;2022-09-09T02:50:22;99850.41;;;14.56;67.18
36664;BME280;53333;51.976;20.144;2022-09-09T02:53:10;99857.53;;;14.57;67.20
36664;BME280;53333;51.976;20.144;2022-09-09T02:55:55;99855.03;;;14.54;67.44
36664;BME280;53333;51.976;20.144;2022-09-09T02:58:39;99848.72;;;14.55;67.48
36664;BME280;53333;51.976;20.144;2022-09-09T03:01:15;99855.78;;;14.56;67.49
36664;BME280;53333;51.976;20.144;2022-09-09T03:03:49;99854.09;;;14.55;67.47
36664;BME280;53333;51.976;20.144;2022-09-09T03:06:24;99858.94;;;14.63;66.70
36664;BME280;53333;51.976;20.144;2022-09-09T03:09:11;99857.88;;;14.65;66.25
36664;BME280;53333;51.976;20.144;2022-09-09T03:11:46;99861.06;;;14.58;66.83
36664;BME280;53333;51.976;20.144;2022-09-09T03:14:22;99861.16;;;14.56;67.26
36664;BME280;53333;51.976;20.144;2022-09-09T03:17:01;99867.53;;;14.55;67.38
36664;BME280;53333;51.976;20.144;2022-09-09T03:19:40;99861.16;;;14.56;67.69
36664;BME280;53333;51.976;20.144;2022-09-09T03:22:18;99862.00;;;14.57;67.86
36664;BME280;53333;51.976;20.144;2022-09-09T03:24:56;99857.41;;;14.59;67.90
36664;BME280;53333;51.976;20.144;2022-09-09T03:27:29;99860.94;;;14.59;68.05
36664;BME280;53333;51.976;20.144;2022-09-09T03:30:07;99865.28;;;14.62;68.17
36664;BME280;53333;51.976;20.144;2022-09-09T03:32:44;99857.97;;;14.64;68.08
36664;BME280;53333;51.976;20.144;2022-09-09T03:35:22;99856.03;;;14.66;68.05
36664;BME280;53333;51.976;20.144;2022-09-09T03:37:57;99857.75;;;14.67;68.16
36664;BME280;53333;51.976;20.144;2022-09-09T03:40:31;99857.66;;;14.68;68.13
36664;BME280;53333;51.976;20.144;2022-09-09T03:43:08;99857.53;;;14.70;68.08
36664;BME280;53333;51.976;20.144;2022-09-09T03:45:45;99862.81;;;14.71;68.26
36664;BME280;53333;51.976;20.144;2022-09-09T03:48:28;99873.56;;;14.71;68.15
36664;BME280;53333;51.976;20.144;2022-09-09T03:51:05;99876.34;;;14.70;68.17
36664;BME280;53333;51.976;20.144;2022-09-09T03:53:42;99871.84;;;14.70;68.31
36664;BME280;53333;51.976;20.144;2022-09-09T03:56:19;99872.56;;;14.73;68.35
36664;BME280;53333;51.976;20.144;2022-09-09T03:58:57;99867.00;;;14.76;68.38
36664;BME280;53333;51.976;20.144;2022-09-09T04:01:31;99869.56;;;14.77;68.35
36664;BME280;53333;51.976;20.144;2022-09-09T04:04:04;99864.84;;;14.81;68.46
36664;BME280;53333;51.976;20.144;2022-09-09T04:06:38;99866.88;;;14.90;67.67
36664;BME280;53333;51.976;20.144;2022-09-09T04:09:21;99876.56;;;14.80;67.75
36664;BME280;53333;51.976;20.144;2022-09-09T04:11:56;99878.41;;;14.79;68.26
36664;BME280;53333;51.976;20.144;2022-09-09T04:14:30;99879.16;;;14.81;68.44
36664;BME280;53333;51.976;20.144;2022-09-09T04:17:08;99876.69;;;14.78;68.51
36664;BME280;53333;51.976;20.144;2022-09-09T04:19:47;99874.09;;;14.77;68.81
36664;BME280;53333;51.976;20.144;2022-09-09T04:22:23;99876.78;;;14.77;68.84
36664;BME280;53333;51.976;20.144;2022-09-09T04:25:02;99880.22;;;14.79;68.85
36664;BME280;53333;51.976;20.144;2022-09-09T04:27:39;99885.47;;;14.80;68.83
36664;BME280;53333;51.976;20.144;2022-09-09T04:30:17;99879.25;;;14.80;68.83
36664;BME280;53333;51.976;20.144;2022-09-09T04:32:51;99885.59;;;14.79;68.98
36664;BME280;53333;51.976;20.144;2022-09-09T04:35:24;99889.38;;;14.76;69.01
36664;BME280;53333;51.976;20.144;2022-09-09T04:38:00;99876.03;;;14.75;69.28
36664;BME280;53333;51.976;20.144;2022-09-09T04:40:38;99886.91;;;14.73;69.30
36664;BME280;53333;51.976;20.144;2022-09-09T04:43:17;99883.34;;;14.73;69.60
36664;BME280;53333;51.976;20.144;2022-09-09T04:45:51;99885.69;;;14.77;69.55
36664;BME280;53333;51.976;20.144;2022-09-09T04:48:28;99889.06;;;14.81;69.52
36664;BME280;53333;51.976;20.144;2022-09-09T04:51:08;99882.47;;;14.85;69.64
36664;BME280;53333;51.976;20.144;2022-09-09T04:53:42;99892.06;;;14.89;69.58
36664;BME280;53333;51.976;20.144;2022-09-09T04:56:18;99892.78;;;14.91;69.61
36664;BME280;53333;51.976;20.144;2022-09-09T04:59:00;99896.13;;;14.95;69.53
36664;BME280;53333;51.976;20.144;2022-09-09T05:01:41;99891.59;;;15.08;68.58
36664;BME280;53333;51.976;20.144;2022-09-09T05:04:16;99891.19;;;15.01;68.88
36664;BME280;53333;51.976;20.144;2022-09-09T05:06:51;99888.50;;;15.01;69.17
36664;BME280;53333;51.976;20.144;2022-09-09T05:09:27;99890.19;;;15.02;69.31
36664;BME280;53333;51.976;20.144;2022-09-09T05:12:02;99894.72;;;15.02;69.50
36664;BME280;53333;51.976;20.144;2022-09-09T05:14:40;99890.94;;;15.04;69.37
36664;BME280;53333;51.976;20.144;2022-09-09T05:17:13;99889.88;;;15.07;69.40
36664;BME280;53333;51.976;20.144;2022-09-09T05:19:51;99890.59;;;15.09;69.50
36664;BME280;53333;51.976;20.144;2022-09-09T05:22:25;99898.34;;;15.14;69.66
36664;BME280;53333;51.976;20.144;2022-09-09T05:25:01;99890.94;;;15.17;69.41
36664;BME280;53333;51.976;20.144;2022-09-09T05:27:35;99891.75;;;15.31;68.58
36664;BME280;53333;51.976;20.144;2022-09-09T05:30:10;99893.16;;;15.23;68.90
36664;BME280;53333;51.976;20.144;2022-09-09T05:32:45;99891.34;;;15.24;69.21
36664;BME280;53333;51.976;20.144;2022-09-09T05:35:21;99890.16;;;15.28;69.18
36664;BME280;53333;51.976;20.144;2022-09-09T05:37:59;99901.69;;;15.30;69.69
36664;BME280;53333;51.976;20.144;2022-09-09T05:40:34;99899.84;;;15.31;69.33
36664;BME280;53333;51.976;20.144;2022-09-09T05:43:10;99898.09;;;15.30;69.32
36664;BME280;53333;51.976;20.144;2022-09-09T05:45:45;99908.88;;;15.30;69.33
36664;BME280;53333;51.976;20.144;2022-09-09T05:48:20;99918.56;;;15.32;69.40
36664;BME280;53333;51.976;20.144;2022-09-09T05:50:53;99908.53;;;15.34;69.53
36664;BME280;53333;51.976;20.144;2022-09-09T05:53:29;99911.75;;;15.39;69.38
36664;BME280;53333;51.976;20.144;2022-09-09T05:56:08;99912.28;;;15.44;69.38
36664;BME280;53333;51.976;20.144;2022-09-09T05:58:51;99908.38;;;15.49;69.38
36664;BME280;53333;51.976;20.144;2022-09-09T06:01:28;99909.13;;;15.51;69.14
36664;BME280;53333;51.976;20.144;2022-09-09T06:04:03;99910.75;;;15.53;69.20
36664;BME280;53333;51.976;20.144;2022-09-09T06:06:37;99916.53;;;15.60;69.34
36664;BME280;53333;51.976;20.144;2022-09-09T06:09:17;99914.25;;;15.67;69.00
36664;BME280;53333;51.976;20.144;2022-09-09T06:11:50;99920.28;;;15.70;69.08
36664;BME280;53333;51.976;20.144;2022-09-09T06:14:27;99922.75;;;15.73;68.93
36664;BME280;53333;51.976;20.144;2022-09-09T06:17:03;99919.88;;;15.76;68.97
36664;BME280;53333;51.976;20.144;2022-09-09T06:19:37;99918.75;;;15.79;68.98
36664;BME280;53333;51.976;20.144;2022-09-09T06:22:11;99925.66;;;15.83;68.83
36664;BME280;53333;51.976;20.144;2022-09-09T06:24:46;99929.19;;;15.84;68.83
36664;BME280;53333;51.976;20.144;2022-09-09T06:27:19;99926.44;;;15.96;68.17
36664;BME280;53333;51.976;20.144;2022-09-09T06:29:54;99928.63;;;15.91;68.40
36664;BME280;53333;51.976;20.144;2022-09-09T06:32:28;99925.47;;;15.97;68.58
36664;BME280;53333;51.976;20.144;2022-09-09T06:35:02;99930.63;;;16.01;68.56
36664;BME280;53333;51.976;20.144;2022-09-09T06:37:36;99927.59;;;16.05;68.73
36664;BME280;53333;51.976;20.144;2022-09-09T06:40:10;99920.88;;;16.11;68.74
36664;BME280;53333;51.976;20.144;2022-09-09T06:42:44;99927.53;;;16.18;68.50
36664;BME280;53333;51.976;20.144;2022-09-09T06:45:30;99930.50;;;16.26;68.40
36664;BME280;53333;51.976;20.144;2022-09-09T06:48:06;99926.47;;;16.32;68.49
36664;BME280;53333;51.976;20.144;2022-09-09T06:50:41;99932.38;;;16.37;68.37
36664;BME280;53333;51.976;20.144;2022-09-09T06:53:16;99934.69;;;16.42;68.27
36664;BME280;53333;51.976;20.144;2022-09-09T06:55:51;99930.78;;;16.46;68.13
36664;BME280;53333;51.976;20.144;2022-09-09T06:58:27;99931.41;;;16.49;68.01
36664;BME280;53333;51.976;20.144;2022-09-09T07:01:08;99933.63;;;16.56;67.86
36664;BME280;53333;51.976;20.144;2022-09-09T07:03:44;99937.59;;;16.63;67.85
36664;BME280;53333;51.976;20.144;2022-09-09T07:06:21;99932.56;;;16.69;67.87
36664;BME280;53333;51.976;20.144;2022-09-09T07:08:57;99946.31;;;16.78;67.81
36664;BME280;53333;51.976;20.144;2022-09-09T07:11:34;99937.88;;;16.82;67.45
36664;BME280;53333;51.976;20.144;2022-09-09T07:14:10;99945.97;;;16.82;67.59
36664;BME280;53333;51.976;20.144;2022-09-09T07:16:50;99945.84;;;16.84;67.53
36664;BME280;53333;51.976;20.144;2022-09-09T07:19:30;99949.38;;;16.84;67.57
36664;BME280;53333;51.976;20.144;2022-09-09T07:22:06;99948.22;;;16.88;67.64
36664;BME280;53333;51.976;20.144;2022-09-09T07:24:40;99957.75;;;16.93;67.53
36664;BME280;53333;51.976;20.144;2022-09-09T07:27:13;99955.84;;;17.06;66.98
36664;BME280;53333;51.976;20.144;2022-09-09T07:29:47;99959.75;;;17.02;67.29
36664;BME280;53333;51.976;20.144;2022-09-09T07:32:21;99965.03;;;17.15;66.64
36664;BME280;53333;51.976;20.144;2022-09-09T07:34:55;99963.81;;;17.08;67.10
36664;BME280;53333;51.976;20.144;2022-09-09T07:37:31;99970.91;;;17.09;67.35
36664;BME280;53333;51.976;20.144;2022-09-09T07:40:05;99971.53;;;17.23;66.62
36664;BME280;53333;51.976;20.144;2022-09-09T07:42:39;99974.84;;;17.16;67.02
36664;BME280;53333;51.976;20.144;2022-09-09T07:45:13;99972.88;;;17.18;67.35
36664;BME280;53333;51.976;20.144;2022-09-09T07:47:48;99965.28;;;17.23;67.60
36664;BME280;53333;51.976;20.144;2022-09-09T07:50:22;99976.34;;;17.31;67.68
36664;BME280;53333;51.976;20.144;2022-09-09T07:52:58;99973.13;;;17.37;67.59
36664;BME280;53333;51.976;20.144;2022-09-09T07:55:31;99974.47;;;17.43;67.49
36664;BME280;53333;51.976;20.144;2022-09-09T07:58:05;99973.75;;;17.52;67.65
36664;BME280;53333;51.976;20.144;2022-09-09T08:00:39;99970.44;;;17.60;67.27
36664;BME280;53333;51.976;20.144;2022-09-09T08:03:17;99976.19;;;17.67;67.40
36664;BME280;53333;51.976;20.144;2022-09-09T08:05:50;99969.28;;;17.74;67.43
36664;BME280;53333;51.976;20.144;2022-09-09T08:08:24;99981.31;;;17.81;67.55
36664;BME280;53333;51.976;20.144;2022-09-09T08:11:05;99981.78;;;17.86;67.15
36664;BME280;53333;51.976;20.144;2022-09-09T08:13:42;99976.78;;;17.93;67.01
36664;BME280;53333;51.976;20.144;2022-09-09T08:16:18;99981.78;;;17.97;67.03
36664;BME280;53333;51.976;20.144;2022-09-09T08:18:55;99980.44;;;18.03;67.11
36664;BME280;53333;51.976;20.144;2022-09-09T08:21:31;99991.59;;;18.10;66.79
36664;BME280;53333;51.976;20.144;2022-09-09T08:24:05;99991.94;;;18.17;66.84
36664;BME280;53333;51.976;20.144;2022-09-09T08:26:41;99997.69;;;18.23;67.04
36664;BME280;53333;51.976;20.144;2022-09-09T08:29:16;100000.72;;;18.30;66.70
36664;BME280;53333;51.976;20.144;2022-09-09T08:31:53;100003.06;;;18.34;66.71
36664;BME280;53333;51.976;20.144;2022-09-09T08:34:31;100001.69;;;18.40;66.71
36664;BME280;53333;51.976;20.144;2022-09-09T08:37:10;100010.13;;;18.47;66.71
36664;BME280;53333;51.976;20.144;2022-09-09T08:39:45;100010.34;;;18.55;66.82
36664;BME280;53333;51.976;20.144;2022-09-09T08:42:34;100016.84;;;18.64;66.79
36664;BME280;53333;51.976;20.144;2022-09-09T08:45:32;100010.66;;;18.73;66.56
36664;BME280;53333;51.976;20.144;2022-09-09T08:48:19;100013.94;;;18.77;66.46
36664;BME280;53333;51.976;20.144;2022-09-09T08:50:58;100012.31;;;18.85;66.51
36664;BME280;53333;51.976;20.144;2022-09-09T08:53:39;100012.50;;;18.94;66.22
36664;BME280;53333;51.976;20.144;2022-09-09T08:56:17;100020.09;;;19.00;66.11
36664;BME280;53333;51.976;20.144;2022-09-09T08:58:56;100015.88;;;19.07;66.07
36664;BME280;53333;51.976;20.144;2022-09-09T09:01:59;100004.00;;;19.19;65.77
36664;BME280;53333;51.976;20.144;2022-09-09T09:04:58;100012.44;;;19.26;65.82
36664;BME280;53333;51.976;20.144;2022-09-09T09:07:48;100002.06;;;19.31;65.61
36664;BME280;53333;51.976;20.144;2022-09-09T09:10:44;100014.19;;;19.37;65.55
36664;BME280;53333;51.976;20.144;2022-09-09T09:13:30;100006.13;;;19.47;65.41
36664;BME280;53333;51.976;20.144;2022-09-09T09:16:14;100017.56;;;19.60;65.30
36664;BME280;53333;51.976;20.144;2022-09-09T09:18:50;100022.19;;;19.69;65.37
36664;BME280;53333;51.976;20.144;2022-09-09T09:21:33;100017.66;;;19.80;64.64
36664;BME280;53333;51.976;20.144;2022-09-09T09:24:16;100012.13;;;19.91;64.17
36664;BME280;53333;51.976;20.144;2022-09-09T09:26:54;100013.88;;;20.02;64.20
36664;BME280;53333;51.976;20.144;2022-09-09T09:29:29;100013.78;;;20.23;64.33
36664;BME280;53333;51.976;20.144;2022-09-09T09:32:03;100021.81;;;20.44;64.16
36664;BME280;53333;51.976;20.144;2022-09-09T09:34:38;100018.34;;;20.61;63.60
36664;BME280;53333;51.976;20.144;2022-09-09T09:37:16;100018.28;;;20.73;62.54
36664;BME280;53333;51.976;20.144;2022-09-09T09:39:53;100017.09;;;20.85;62.27
36664;BME280;53333;51.976;20.144;2022-09-09T09:42:34;100016.22;;;21.04;61.74
36664;BME280;53333;51.976;20.144;2022-09-09T09:45:16;100017.03;;;21.24;61.01
36664;BME280;53333;51.976;20.144;2022-09-09T09:47:58;100028.81;;;21.42;60.13
36664;BME280;53333;51.976;20.144;2022-09-09T09:50:47;100033.94;;;21.65;59.84
36664;BME280;53333;51.976;20.144;2022-09-09T09:53:24;100027.22;;;21.97;59.15
36664;BME280;53333;51.976;20.144;2022-09-09T09:56:02;100038.81;;;22.17;59.02
36664;BME280;53333;51.976;20.144;2022-09-09T09:58:48;100047.47;;;22.30;58.38
36664;BME280;53333;51.976;20.144;2022-09-09T10:01:28;100045.31;;;22.34;57.74
36664;BME280;53333;51.976;20.144;2022-09-09T10:04:15;100039.88;;;22.34;58.06
36664;BME280;53333;51.976;20.144;2022-09-09T10:06:51;100049.94;;;22.24;57.78
36664;BME280;53333;51.976;20.144;2022-09-09T10:09:26;100043.72;;;22.13;58.12
36664;BME280;53333;51.976;20.144;2022-09-09T10:12:11;100040.06;;;21.95;57.97
36664;BME280;53333;51.976;20.144;2022-09-09T10:14:55;100047.03;;;21.80;58.51
36664;BME280;53333;51.976;20.144;2022-09-09T10:17:38;100048.38;;;21.66;58.40
36664;BME280;53333;51.976;20.144;2022-09-09T10:26:34;100055.44;;;21.49;59.18
36664;BME280;53333;51.976;20.144;2022-09-09T10:29:30;100053.13;;;21.54;58.97
36664;BME280;53333;51.976;20.144;2022-09-09T10:35:29;100056.44;;;21.85;58.62
36664;BME280;53333;51.976;20.144;2022-09-09T10:38:18;100053.06;;;22.01;58.19
36664;BME280;53333;51.976;20.144;2022-09-09T10:41:13;100064.19;;;22.08;57.86
36664;BME280;53333;51.976;20.144;2022-09-09T10:44:15;100072.34;;;22.08;57.94
36664;BME280;53333;51.976;20.144;2022-09-09T10:47:10;100079.56;;;21.99;58.17
36664;BME280;53333;51.976;20.144;2022-09-09T10:50:06;100077.34;;;21.85;58.07
36664;BME280;53333;51.976;20.144;2022-09-09T10:52:47;100074.22;;;21.70;58.01
36664;BME280;53333;51.976;20.144;2022-09-09T10:55:27;100069.41;;;21.64;58.40
36664;BME280;53333;51.976;20.144;2022-09-09T10:58:03;100079.00;;;21.58;58.59
36664;BME280;53333;51.976;20.144;2022-09-09T11:00:41;100076.69;;;21.63;58.61
36664;BME280;53333;51.976;20.144;2022-09-09T11:03:20;100072.00;;;21.65;58.70
36664;BME280;53333;51.976;20.144;2022-09-09T11:05:57;100077.72;;;21.62;58.77
36664;BME280;53333;51.976;20.144;2022-09-09T11:08:36;100078.84;;;21.59;58.43
36664;BME280;53333;51.976;20.144;2022-09-09T11:11:15;100082.00;;;21.55;58.47
36664;BME280;53333;51.976;20.144;2022-09-09T11:13:55;100091.50;;;21.51;58.95
36664;BME280;53333;51.976;20.144;2022-09-09T11:16:40;100099.00;;;21.47;58.67
36664;BME280;53333;51.976;20.144;2022-09-09T11:19:22;100098.47;;;21.44;58.90
36664;BME280;53333;51.976;20.144;2022-09-09T11:21:58;100101.75;;;21.37;58.87
36664;BME280;53333;51.976;20.144;2022-09-09T11:24:41;100100.91;;;21.37;59.09
36664;BME280;53333;51.976;20.144;2022-09-09T11:27:21;100105.91;;;21.41;59.23
36664;BME280;53333;51.976;20.144;2022-09-09T11:30:17;100093.72;;;21.55;58.59
36664;BME280;53333;51.976;20.144;2022-09-09T11:33:42;100109.31;;;21.63;57.95
36664;BME280;53333;51.976;20.144;2022-09-09T11:39:45;100093.09;;;21.71;57.57
36664;BME280;53333;51.976;20.144;2022-09-09T11:42:23;100100.41;;;21.71;57.43
36664;BME280;53333;51.976;20.144;2022-09-09T11:45:09;100100.41;;;21.71;58.24
36664;BME280;53333;51.976;20.144;2022-09-09T11:47:55;100096.75;;;21.62;57.86
36664;BME280;53333;51.976;20.144;2022-09-09T11:50:33;100103.75;;;21.55;57.75
36664;BME280;53333;51.976;20.144;2022-09-09T11:53:23;100100.75;;;21.58;57.43
36664;BME280;53333;51.976;20.144;2022-09-09T11:56:05;100105.63;;;21.54;57.65
36664;BME280;53333;51.976;20.144;2022-09-09T11:58:44;100100.72;;;21.68;57.89
36664;BME280;53333;51.976;20.144;2022-09-09T12:01:35;100096.06;;;21.88;56.84
36664;BME280;53333;51.976;20.144;2022-09-09T12:04:16;100098.53;;;22.09;56.74
36664;BME280;53333;51.976;20.144;2022-09-09T12:06:55;100095.38;;;22.41;56.43
36664;BME280;53333;51.976;20.144;2022-09-09T12:09:47;100092.69;;;22.59;56.07
36664;BME280;53333;51.976;20.144;2022-09-09T12:12:26;100086.78;;;22.82;55.51
36664;BME280;53333;51.976;20.144;2022-09-09T12:15:17;100083.38;;;23.42;54.10
36664;BME280;53333;51.976;20.144;2022-09-09T12:17:54;100086.19;;;24.19;53.21
36664;BME280;53333;51.976;20.144;2022-09-09T12:20:34;100083.47;;;25.03;51.70
36664;BME280;53333;51.976;20.144;2022-09-09T12:23:30;100084.78;;;25.73;49.89
36664;BME280;53333;51.976;20.144;2022-09-09T12:26:34;100083.00;;;26.36;49.08
36664;BME280;53333;51.976;20.144;2022-09-09T12:29:22;100080.91;;;26.78;47.09
36664;BME280;53333;51.976;20.144;2022-09-09T12:32:00;100080.00;;;26.86;46.08
36664;BME280;53333;51.976;20.144;2022-09-09T12:34:38;100078.34;;;26.76;45.52
36664;BME280;53333;51.976;20.144;2022-09-09T12:37:27;100081.88;;;26.54;45.34
36664;BME280;53333;51.976;20.144;2022-09-09T12:40:04;100069.88;;;26.32;45.60
36664;BME280;53333;51.976;20.144;2022-09-09T12:42:41;100068.63;;;26.03;45.78
36664;BME280;53333;51.976;20.144;2022-09-09T12:45:17;100071.56;;;25.93;46.37
36664;BME280;53333;51.976;20.144;2022-09-09T12:47:53;100076.31;;;26.07;46.24
36664;BME280;53333;51.976;20.144;2022-09-09T12:50:30;100071.28;;;26.19;46.26
36664;BME280;53333;51.976;20.144;2022-09-09T12:53:10;100063.91;;;26.28;45.52
36664;BME280;53333;51.976;20.144;2022-09-09T12:55:50;100065.59;;;26.29;44.81
36664;BME280;53333;51.976;20.144;2022-09-09T12:58:27;100077.06;;;26.24;45.16
36664;BME280;53333;51.976;20.144;2022-09-09T13:01:05;100077.69;;;26.03;45.03
36664;BME280;53333;51.976;20.144;2022-09-09T13:03:42;100080.66;;;25.77;45.88
36664;BME280;53333;51.976;20.144;2022-09-09T13:06:21;100082.78;;;25.50;46.25
36664;BME280;53333;51.976;20.144;2022-09-09T13:09:01;100073.06;;;25.23;46.78
36664;BME280;53333;51.976;20.144;2022-09-09T13:11:37;100078.00;;;25.03;47.13
36664;BME280;53333;51.976;20.144;2022-09-09T13:14:17;100078.84;;;24.87;47.57
36664;BME280;53333;51.976;20.144;2022-09-09T13:16:56;100074.22;;;24.71;47.91
36664;BME280;53333;51.976;20.144;2022-09-09T13:19:35;100079.50;;;24.56;47.96
36664;BME280;53333;51.976;20.144;2022-09-09T13:22:13;100074.16;;;24.46;48.15
36664;BME280;53333;51.976;20.144;2022-09-09T13:24:47;100078.41;;;24.41;48.43
36664;BME280;53333;51.976;20.144;2022-09-09T13:27:28;100073.59;;;24.35;48.40
36664;BME280;53333;51.976;20.144;2022-09-09T13:30:23;100072.25;;;24.30;48.55
36664;BME280;53333;51.976;20.144;2022-09-09T13:33:17;100069.34;;;24.24;48.82
36664;BME280;53333;51.976;20.144;2022-09-09T13:35:54;100066.78;;;24.22;48.86
36664;BME280;53333;51.976;20.144;2022-09-09T13:38:32;100064.41;;;24.27;48.72
36664;BME280;53333;51.976;20.144;2022-09-09T13:41:08;100063.72;;;24.34;48.83
36664;BME280;53333;51.976;20.144;2022-09-09T13:43:44;100070.22;;;24.49;48.37
36664;BME280;53333;51.976;20.144;2022-09-09T13:46:31;100062.78;;;24.59;47.87
36664;BME280;53333;51.976;20.144;2022-09-09T13:49:19;100067.72;;;24.56;47.67
36664;BME280;53333;51.976;20.144;2022-09-09T13:52:04;100068.03;;;24.44;48.00
36664;BME280;53333;51.976;20.144;2022-09-09T13:54:38;100060.50;;;24.30;47.90
36664;BME280;53333;51.976;20.144;2022-09-09T13:57:15;100057.72;;;24.22;48.45
36664;BME280;53333;51.976;20.144;2022-09-09T13:59:50;100064.03;;;24.14;49.08
36664;BME280;53333;51.976;20.144;2022-09-09T14:02:37;100059.56;;;24.05;48.89
36664;BME280;53333;51.976;20.144;2022-09-09T14:05:16;100066.78;;;23.88;49.30
36664;BME280;53333;51.976;20.144;2022-09-09T14:07:50;100054.41;;;23.67;49.68